»·PEaware :: QXE2486 KBUR-KLAS

QXE2486 :: KBUR-KLAS

FLIGHT INFORMATION

Flight Status: Arrived
Operator:
Horizon Air
More flights by this operator :: More flights under this callsign
Pilot: Walter H. (552)
Aircraft: DEHAVILLAND DASH 8 400
(DH8D)
More flights by this aircraft type
Origin: KBUR Bob Hope-Burbank
United States
Destination: KLAS McCarran Intl
United States
More flights between these airports :: More routes between these airports
Route: +VNY2 DAG CRESO3
File this flight plan on PilotEdge
Remarks: I5
Altitude:
(Current/Filed)
23,000ft
Speed:
(Current/Filed)
350kts
Departed: 17-Jan-16 02:06 PM
Arrived: 17-Jan-16 02:54 PM
Distance/Time
Traveled:
194nm/0:48
Distance/Time
To Go:
Arrived

Flight Plot

Page will automatically refresh every two minutes.


Map Options




Map Legend


Flown Route
Filed Route
Departure Airport
Arrival Airport
Navaid (VOR, NDB)
Fix

Horizontal Profiles

Position Reports

Time Latitude Longitude Heading Altitude Ground
Speed
17-Jan-16 13:28 34.196800 -118.352700 0 728ft 0kts
17-Jan-16 13:29 34.196764 -118.352689 180 728ft 0kts
17-Jan-16 13:30 34.196764 -118.352689 180 728ft 0kts
17-Jan-16 13:31 34.196764 -118.352689 180 728ft 0kts
17-Jan-16 13:32 34.196764 -118.352689 180 728ft 0kts
17-Jan-16 13:33 34.196764 -118.352689 180 728ft 0kts
17-Jan-16 13:34 34.196764 -118.352689 180 728ft 0kts
17-Jan-16 13:35 34.196764 -118.352689 180 728ft 0kts
17-Jan-16 13:36 34.196764 -118.352689 180 728ft 0kts
17-Jan-16 13:37 34.196764 -118.352689 180 728ft 0kts
17-Jan-16 13:38 34.196764 -118.352689 180 728ft 0kts
17-Jan-16 13:39 34.196764 -118.352689 180 728ft 0kts
17-Jan-16 13:40 34.196764 -118.352689 180 728ft 0kts
17-Jan-16 13:41 34.196764 -118.352689 180 728ft 0kts
17-Jan-16 13:42 34.196764 -118.352689 180 728ft 0kts
17-Jan-16 13:43 34.196765 -118.352689 180 728ft 0kts
17-Jan-16 13:44 34.196765 -118.352689 180 728ft 0kts
17-Jan-16 13:45 34.196765 -118.352689 180 728ft 0kts
17-Jan-16 13:46 34.196765 -118.352689 180 728ft 0kts
17-Jan-16 13:47 34.197092 -118.352673 183 728ft 3kts
17-Jan-16 13:48 34.197187 -118.352665 184 728ft 0kts
17-Jan-16 13:49 34.197199 -118.352664 184 728ft 0kts
17-Jan-16 13:50 34.197121 -118.352672 185 728ft 3kts
17-Jan-16 13:51 34.197062 -118.352678 187 728ft 0kts
17-Jan-16 13:52 34.196974 -118.352694 187 728ft 0kts
17-Jan-16 13:53 34.196904 -118.352705 186 728ft 0kts
17-Jan-16 13:54 34.196840 -118.352666 129 728ft 0kts
17-Jan-16 13:55 34.197408 -118.355087 17 728ft 13kts
17-Jan-16 13:56 34.204136 -118.356785 347 728ft 21kts
17-Jan-16 13:57 34.209824 -118.358402 346 728ft 19kts
17-Jan-16 13:58 34.212238 -118.359519 275 728ft 0kts
17-Jan-16 13:59 34.212236 -118.359492 275 728ft 0kts
17-Jan-16 14:00 34.211639 -118.360263 167 728ft 6kts
17-Jan-16 14:01 34.181007 -118.354857 196 2105ft 146kts
17-Jan-16 14:02 34.146524 -118.393907 223 4302ft 200kts
17-Jan-16 14:03 34.163832 -118.450983 341 6425ft 245kts
17-Jan-16 14:04 34.233767 -118.462782 351 8688ft 259kts
17-Jan-16 14:05 34.305106 -118.472377 350 10959ft 257kts
17-Jan-16 14:06 34.376261 -118.480990 350 13060ft 256kts
17-Jan-16 14:07 34.450245 -118.488991 351 14010ft 289kts
17-Jan-16 14:08 34.533015 -118.476902 38 14033ft 334kts
17-Jan-16 14:09 34.567579 -118.369542 75 14068ft 352kts
17-Jan-16 14:10 34.589904 -118.261760 74 16090ft 307kts
17-Jan-16 14:11 34.609998 -118.163722 73 17748ft 293kts
17-Jan-16 14:12 34.630181 -118.068089 72 19146ft 291kts
17-Jan-16 14:13 34.641932 -117.970218 79 20420ft 292kts
17-Jan-16 14:14 34.652069 -117.872087 77 21601ft 291kts
17-Jan-16 14:15 34.662846 -117.774109 76 22686ft 291kts
17-Jan-16 14:16 34.685421 -117.678932 65 23206ft 305kts
17-Jan-16 14:17 34.712284 -117.576420 67 23229ft 331kts
17-Jan-16 14:18 34.740095 -117.467034 67 23232ft 347kts
17-Jan-16 14:19 34.768929 -117.353413 67 23233ft 356kts
17-Jan-16 14:20 34.798216 -117.237409 68 23235ft 360kts
17-Jan-16 14:21 34.827621 -117.120288 68 23235ft 363kts
17-Jan-16 14:22 34.857169 -117.002430 68 23228ft 364kts
17-Jan-16 14:23 34.886717 -116.884136 68 23221ft 365kts
17-Jan-16 14:24 34.916120 -116.765679 68 23220ft 365kts
17-Jan-16 14:25 34.945331 -116.647647 68 23219ft 365kts
17-Jan-16 14:26 34.980849 -116.533065 54 23217ft 357kts
17-Jan-16 14:27 35.029891 -116.427671 56 23215ft 358kts
17-Jan-16 14:28 35.076744 -116.320361 56 23215ft 358kts
17-Jan-16 14:29 35.124003 -116.213449 55 23215ft 358kts
17-Jan-16 14:30 35.171245 -116.106250 56 23216ft 358kts
17-Jan-16 14:31 35.217930 -116.000062 56 21814ft 353kts
17-Jan-16 14:32 35.263775 -115.895385 56 19918ft 345kts
17-Jan-16 14:33 35.308915 -115.792659 55 17961ft 338kts
17-Jan-16 14:34 35.368087 -115.710821 41 16172ft 311kts
17-Jan-16 14:35 35.426815 -115.632855 44 14434ft 313kts
17-Jan-16 14:36 35.485505 -115.554026 45 12692ft 312kts
17-Jan-16 14:37 35.543646 -115.476003 45 12039ft 304kts
17-Jan-16 14:38 35.591048 -115.412043 45 12024ft 304kts
17-Jan-16 14:39 35.648090 -115.335155 45 12027ft 303kts
17-Jan-16 14:40 35.704923 -115.258548 44 12032ft 302kts
17-Jan-16 14:41 35.762455 -115.180977 45 11154ft 312kts
17-Jan-16 14:42 35.822703 -115.123028 356 9431ft 261kts
17-Jan-16 14:43 35.860101 -115.186191 272 7736ft 256kts
17-Jan-16 14:44 35.879433 -115.260839 337 6632ft 221kts
17-Jan-16 14:45 35.938581 -115.256517 26 5839ft 222kts
17-Jan-16 14:46 35.987615 -115.221763 29 4232ft 184kts
17-Jan-16 14:47 36.028584 -115.196998 24 3396ft 139kts
17-Jan-16 14:48 36.060223 -115.178873 25 2582ft 124kts
17-Jan-16 14:49 36.087543 -115.163240 25 2122ft 26kts
17-Jan-16 14:50 36.087874 -115.159256 114 2122ft 20kts
17-Jan-16 14:51 36.086861 -115.156298 110 2122ft 17kts
17-Jan-16 14:52 36.086321 -115.153795 103 2122ft 7kts
17-Jan-16 14:53 36.086308 -115.153732 103 2122ft 0kts
17-Jan-16 14:54 36.086308 -115.153732 103 2122ft 0kts
17-Jan-16 14:55 36.086308 -115.153732 103 2122ft 0kts

Navigation Log

Ident Type
Flight plan parsing failed, navigation log unavailable